WAT4447 KHSV-KDCA
Flight info
| Callsign | WAT4447 |
|---|---|
| Flight time | 1h 28m |
| Altitude | 35000 |
| Route | RMG ODF SPA GSO SBV RIC IRONS7 |
| Aircraft | B722/M-VRDW/C |
Departure
| Time | 2026-04-25 21:51 |
|---|---|
| Airport | Huntsville International Airport (KHSV) |
Arrival
| Time | 2026-04-25 23:19 |
|---|---|
| Airport | Ronald Reagan Washington National Airport (KDCA) |
| Time | Latitude | Longitude | Altitude | Speed | Heading |
|---|---|---|---|---|---|
| 2026-04-25 21:21 | 34.63822 | -86.76230 | 602 ft | 0 kts | 110° |
| 2026-04-25 21:43 | 34.63820 | -86.76222 | 602 ft | 4 kts | 110° |
| 2026-04-25 21:43 | 34.63801 | -86.76220 | 601 ft | 4 kts | 258° |
| 2026-04-25 21:44 | 34.63797 | -86.76263 | 601 ft | 7 kts | 278° |
| 2026-04-25 21:44 | 34.63844 | -86.76329 | 603 ft | 13 kts | 335° |
| 2026-04-25 21:44 | 34.64014 | -86.76346 | 609 ft | 9 kts | 4° |
| 2026-04-25 21:45 | 34.64066 | -86.76342 | 611 ft | 5 kts | 1° |
| 2026-04-25 21:45 | 34.64088 | -86.76341 | 612 ft | 4 kts | 1° |
| 2026-04-25 21:45 | 34.64118 | -86.76341 | 613 ft | 1 kts | 1° |
| 2026-04-25 21:45 | 34.64148 | -86.76340 | 614 ft | 7 kts | 1° |
| 2026-04-25 21:46 | 34.64230 | -86.76338 | 615 ft | 15 kts | 0° |
| 2026-04-25 21:46 | 34.64337 | -86.76337 | 615 ft | 8 kts | 1° |
| 2026-04-25 21:46 | 34.64379 | -86.76337 | 614 ft | 0 kts | 1° |
| 2026-04-25 21:47 | 34.64420 | -86.76352 | 613 ft | 12 kts | 325° |
| 2026-04-25 21:47 | 34.64484 | -86.76458 | 612 ft | 16 kts | 275° |
| 2026-04-25 21:47 | 34.64487 | -86.76612 | 610 ft | 17 kts | 271° |
| 2026-04-25 21:48 | 34.64526 | -86.76713 | 609 ft | 12 kts | 351° |
| 2026-04-25 21:48 | 34.64628 | -86.76711 | 609 ft | 17 kts | 1° |
| 2026-04-25 21:48 | 34.64774 | -86.76708 | 609 ft | 21 kts | 0° |
| 2026-04-25 21:48 | 34.64926 | -86.76706 | 609 ft | 21 kts | 0° |
| 2026-04-25 21:49 | 34.65080 | -86.76704 | 609 ft | 21 kts | 1° |
| 2026-04-25 21:49 | 34.65199 | -86.76699 | 609 ft | 12 kts | 1° |
| 2026-04-25 21:49 | 34.65276 | -86.76687 | 609 ft | 12 kts | 31° |
| 2026-04-25 21:49 | 34.65298 | -86.76572 | 610 ft | 14 kts | 118° |
| 2026-04-25 21:50 | 34.65126 | -86.76550 | 609 ft | 49 kts | 180° |
| 2026-04-25 21:50 | 34.64527 | -86.76565 | 611 ft | 118 kts | 181° |
| 2026-04-25 21:50 | 34.63462 | -86.76583 | 619 ft | 177 kts | 183° |
| 2026-04-25 21:50 | 34.62584 | -86.76590 | 901 ft | 191 kts | 182° |
| 2026-04-25 21:51 | 34.60634 | -86.76624 | 1660 ft | 215 kts | 184° |
| 2026-04-25 21:51 | 34.59092 | -86.76701 | 2487 ft | 224 kts | 185° |
| 2026-04-25 21:51 | 34.57433 | -86.76840 | 3091 ft | 246 kts | 186° |
| 2026-04-25 21:51 | 34.55671 | -86.77068 | 3976 ft | 250 kts | 189° |
| 2026-04-25 21:52 | 34.53862 | -86.77387 | 4352 ft | 267 kts | 191° |
| 2026-04-25 21:52 | 34.52000 | -86.77751 | 4732 ft | 263 kts | 191° |
| 2026-04-25 21:52 | 34.50120 | -86.78124 | 4878 ft | 267 kts | 191° |
| 2026-04-25 21:52 | 34.48209 | -86.78518 | 4850 ft | 276 kts | 192° |
| 2026-04-25 21:53 | 34.46262 | -86.78935 | 5668 ft | 276 kts | 192° |
| 2026-04-25 21:53 | 34.44615 | -86.79288 | 7748 ft | 223 kts | 192° |
| 2026-04-25 21:53 | 34.43064 | -86.79279 | 8411 ft | 231 kts | 165° |
| 2026-04-25 21:53 | 34.41576 | -86.78137 | 8451 ft | 267 kts | 130° |
| 2026-04-25 21:54 | 34.40538 | -86.76063 | 8838 ft | 286 kts | 114° |
| 2026-04-25 21:54 | 34.40124 | -86.73641 | 9380 ft | 296 kts | 94° |
| 2026-04-25 21:54 | 34.39974 | -86.71058 | 10044 ft | 304 kts | 93° |
| 2026-04-25 21:54 | 34.39827 | -86.68420 | 10623 ft | 315 kts | 94° |
| 2026-04-25 21:55 | 34.39617 | -86.65543 | 10721 ft | 344 kts | 96° |
| 2026-04-25 21:55 | 34.39321 | -86.62539 | 11169 ft | 360 kts | 97° |
| 2026-04-25 21:55 | 34.38937 | -86.59424 | 11760 ft | 370 kts | 99° |
| 2026-04-25 21:55 | 34.38479 | -86.56243 | 12420 ft | 378 kts | 101° |
| 2026-04-25 21:56 | 34.37959 | -86.52981 | 13083 ft | 385 kts | 101° |
| 2026-04-25 21:56 | 34.37598 | -86.50821 | 13541 ft | 389 kts | 102° |
| 2026-04-25 21:56 | 34.36843 | -86.46390 | 14490 ft | 394 kts | 102° |
| 2026-04-25 21:56 | 34.36280 | -86.43038 | 15197 ft | 397 kts | 101° |
| 2026-04-25 21:57 | 34.35736 | -86.39688 | 15830 ft | 402 kts | 101° |
| 2026-04-25 21:57 | 34.35194 | -86.36237 | 16444 ft | 407 kts | 100° |
| 2026-04-25 21:57 | 34.34674 | -86.32805 | 17035 ft | 411 kts | 101° |
| 2026-04-25 21:57 | 34.34155 | -86.29282 | 17615 ft | 415 kts | 100° |
| 2026-04-25 21:58 | 34.33640 | -86.25720 | 18180 ft | 419 kts | 100° |
| 2026-04-25 21:58 | 34.33127 | -86.22142 | 18718 ft | 423 kts | 100° |
| 2026-04-25 21:58 | 34.32612 | -86.18565 | 19228 ft | 427 kts | 100° |
| 2026-04-25 21:58 | 34.32079 | -86.14899 | 19723 ft | 431 kts | 100° |
| 2026-04-25 21:59 | 34.31544 | -86.11248 | 20196 ft | 435 kts | 100° |
| 2026-04-25 21:59 | 34.30996 | -86.07538 | 20668 ft | 439 kts | 100° |
| 2026-04-25 21:59 | 34.30449 | -86.03857 | 21124 ft | 442 kts | 100° |
| 2026-04-25 22:00 | 34.29503 | -85.97527 | 21881 ft | 448 kts | 100° |
| 2026-04-25 22:00 | 34.28740 | -85.92442 | 22466 ft | 452 kts | 99° |
| 2026-04-25 22:00 | 34.28169 | -85.88646 | 22869 ft | 455 kts | 99° |
| 2026-04-25 22:00 | 34.27584 | -85.84755 | 23263 ft | 459 kts | 99° |
| 2026-04-25 22:01 | 34.26994 | -85.80823 | 23644 ft | 462 kts | 99° |
| 2026-04-25 22:01 | 34.26403 | -85.76927 | 24015 ft | 465 kts | 99° |
| 2026-04-25 22:01 | 34.25794 | -85.72929 | 24401 ft | 468 kts | 99° |
| 2026-04-25 22:01 | 34.25396 | -85.70303 | 24646 ft | 470 kts | 99° |
| 2026-04-25 22:02 | 34.24593 | -85.64974 | 25152 ft | 472 kts | 99° |
| 2026-04-25 22:02 | 34.23991 | -85.60984 | 25506 ft | 475 kts | 99° |
| 2026-04-25 22:02 | 34.23376 | -85.56938 | 25830 ft | 478 kts | 99° |
| 2026-04-25 22:02 | 34.22757 | -85.52884 | 26166 ft | 480 kts | 100° |
| 2026-04-25 22:03 | 34.22134 | -85.48817 | 26513 ft | 481 kts | 100° |
| 2026-04-25 22:03 | 34.21509 | -85.44764 | 26821 ft | 484 kts | 100° |
| 2026-04-25 22:03 | 34.20869 | -85.40641 | 27146 ft | 485 kts | 100° |
| 2026-04-25 22:03 | 34.20231 | -85.36545 | 27457 ft | 487 kts | 100° |
| 2026-04-25 22:04 | 34.19580 | -85.32378 | 27753 ft | 489 kts | 101° |
| 2026-04-25 22:04 | 34.18937 | -85.28241 | 28027 ft | 491 kts | 101° |
| 2026-04-25 22:04 | 34.18291 | -85.24107 | 28348 ft | 491 kts | 101° |
| 2026-04-25 22:04 | 34.17640 | -85.19961 | 28699 ft | 491 kts | 101° |
| 2026-04-25 22:05 | 34.17005 | -85.15836 | 29065 ft | 489 kts | 99° |
| 2026-04-25 22:05 | 34.16890 | -85.11643 | 29382 ft | 487 kts | 83° |
| 2026-04-25 22:05 | 34.17549 | -85.07552 | 29675 ft | 485 kts | 72° |
| 2026-04-25 22:05 | 34.18639 | -85.03571 | 29962 ft | 483 kts | 68° |
| 2026-04-25 22:06 | 34.19876 | -84.99687 | 30271 ft | 482 kts | 66° |
| 2026-04-25 22:06 | 34.21143 | -84.95871 | 30532 ft | 482 kts | 66° |
| 2026-04-25 22:06 | 34.22420 | -84.92007 | 30787 ft | 483 kts | 67° |
| 2026-04-25 22:06 | 34.23667 | -84.88126 | 31031 ft | 483 kts | 68° |
| 2026-04-25 22:07 | 34.24881 | -84.84229 | 31290 ft | 483 kts | 69° |
| 2026-04-25 22:07 | 34.25670 | -84.81631 | 31448 ft | 483 kts | 69° |
| 2026-04-25 22:07 | 34.27219 | -84.76414 | 31758 ft | 483 kts | 70° |
| 2026-04-25 22:07 | 34.28365 | -84.72495 | 32003 ft | 483 kts | 70° |
| 2026-04-25 22:08 | 34.29519 | -84.68527 | 32225 ft | 483 kts | 70° |
| 2026-04-25 22:08 | 34.30652 | -84.64630 | 32482 ft | 483 kts | 70° |
| 2026-04-25 22:08 | 34.31798 | -84.60705 | 32731 ft | 484 kts | 70° |
| 2026-04-25 22:08 | 34.32962 | -84.56732 | 32968 ft | 484 kts | 70° |
| 2026-04-25 22:09 | 34.34109 | -84.52834 | 33205 ft | 484 kts | 70° |
| 2026-04-25 22:09 | 34.35281 | -84.48861 | 33452 ft | 484 kts | 70° |
| 2026-04-25 22:09 | 34.36433 | -84.44958 | 33679 ft | 484 kts | 70° |
| 2026-04-25 22:09 | 34.37602 | -84.41000 | 33890 ft | 484 kts | 70° |
| 2026-04-25 22:10 | 34.38757 | -84.37086 | 34083 ft | 485 kts | 70° |
| 2026-04-25 22:10 | 34.39915 | -84.33156 | 34289 ft | 484 kts | 70° |
| 2026-04-25 22:10 | 34.41063 | -84.29237 | 34501 ft | 484 kts | 70° |
| 2026-04-25 22:10 | 34.42221 | -84.25254 | 34688 ft | 484 kts | 70° |
| 2026-04-25 22:11 | 34.43357 | -84.21337 | 34839 ft | 484 kts | 70° |
| 2026-04-25 22:11 | 34.44503 | -84.17392 | 34892 ft | 488 kts | 70° |
| 2026-04-25 22:11 | 34.46856 | -84.09360 | 34914 ft | 496 kts | 70° |
| 2026-04-25 22:12 | 34.49241 | -84.01244 | 34905 ft | 505 kts | 70° |
| 2026-04-25 22:12 | 34.51266 | -83.94320 | 34903 ft | 512 kts | 70° |
| 2026-04-25 22:13 | 34.54116 | -83.84497 | 34901 ft | 519 kts | 70° |
| 2026-04-25 22:13 | 34.56556 | -83.76032 | 34900 ft | 520 kts | 70° |
| 2026-04-25 22:14 | 34.58992 | -83.67549 | 34900 ft | 522 kts | 70° |
| 2026-04-25 22:14 | 34.61443 | -83.58991 | 34900 ft | 524 kts | 70° |
| 2026-04-25 22:15 | 34.63883 | -83.50477 | 34900 ft | 525 kts | 70° |
| 2026-04-25 22:16 | 34.67588 | -83.37524 | 34900 ft | 527 kts | 70° |
| 2026-04-25 22:16 | 34.70013 | -83.28899 | 34898 ft | 528 kts | 72° |
| 2026-04-25 22:17 | 34.72252 | -83.20185 | 34899 ft | 528 kts | 73° |
| 2026-04-25 22:17 | 34.74409 | -83.11410 | 34908 ft | 529 kts | 73° |
| 2026-04-25 22:18 | 34.76575 | -83.02614 | 34918 ft | 529 kts | 73° |
| 2026-04-25 22:18 | 34.78743 | -82.93884 | 34921 ft | 530 kts | 73° |
| 2026-04-25 22:19 | 34.80945 | -82.85029 | 34920 ft | 531 kts | 72° |
| 2026-04-25 22:19 | 34.83130 | -82.76226 | 34901 ft | 532 kts | 72° |
| 2026-04-25 22:20 | 34.85306 | -82.67416 | 34896 ft | 532 kts | 72° |
| 2026-04-25 22:20 | 34.87488 | -82.58556 | 34899 ft | 533 kts | 72° |
| 2026-04-25 22:21 | 34.89653 | -82.49712 | 34903 ft | 533 kts | 72° |
| 2026-04-25 22:21 | 34.91814 | -82.40865 | 34910 ft | 532 kts | 72° |
| 2026-04-25 22:22 | 34.93962 | -82.32050 | 34915 ft | 531 kts | 73° |
| 2026-04-25 22:22 | 34.96108 | -82.23212 | 34920 ft | 530 kts | 73° |
| 2026-04-25 22:23 | 34.98239 | -82.14378 | 34924 ft | 530 kts | 73° |
| 2026-04-25 22:23 | 35.00353 | -82.05583 | 34927 ft | 529 kts | 73° |
| 2026-04-25 22:24 | 35.02462 | -81.96784 | 34927 ft | 529 kts | 73° |
| 2026-04-25 22:24 | 35.05194 | -81.88253 | 34927 ft | 526 kts | 61° |
| 2026-04-25 22:25 | 35.09122 | -81.80595 | 34931 ft | 522 kts | 51° |
| 2026-04-25 22:25 | 35.13508 | -81.73441 | 34933 ft | 522 kts | 51° |
| 2026-04-25 22:26 | 35.17836 | -81.66009 | 34931 ft | 523 kts | 53° |
| 2026-04-25 22:26 | 35.21912 | -81.58400 | 34926 ft | 524 kts | 55° |
| 2026-04-25 22:27 | 35.25913 | -81.50657 | 34920 ft | 524 kts | 56° |
| 2026-04-25 22:27 | 35.29886 | -81.42953 | 34917 ft | 524 kts | 55° |
| 2026-04-25 22:28 | 35.33920 | -81.35206 | 34916 ft | 525 kts | 55° |
| 2026-04-25 22:28 | 35.37957 | -81.27487 | 34917 ft | 524 kts | 55° |
| 2026-04-25 22:29 | 35.41986 | -81.19778 | 34916 ft | 524 kts | 57° |
| 2026-04-25 22:29 | 35.43473 | -81.15604 | 34913 ft | 524 kts | 75° |
| 2026-04-25 22:29 | 35.43928 | -81.11120 | 34915 ft | 521 kts | 92° |
| 2026-04-25 22:30 | 35.44005 | -81.02134 | 34914 ft | 516 kts | 73° |
| 2026-04-25 22:30 | 35.45430 | -80.98038 | 34916 ft | 510 kts | 56° |
| 2026-04-25 22:30 | 35.47709 | -80.94666 | 34918 ft | 501 kts | 38° |
| 2026-04-25 22:30 | 35.49613 | -80.92948 | 34920 ft | 494 kts | 26° |
| 2026-04-25 22:31 | 35.56966 | -80.88871 | 34920 ft | 491 kts | 29° |
| 2026-04-25 22:31 | 35.62436 | -80.83405 | 34906 ft | 496 kts | 37° |
| 2026-04-25 22:32 | 35.67925 | -80.77975 | 34909 ft | 496 kts | 33° |
| 2026-04-25 22:32 | 35.73622 | -80.72842 | 34909 ft | 496 kts | 32° |
| 2026-04-25 22:33 | 35.79345 | -80.67715 | 34909 ft | 498 kts | 32° |
| 2026-04-25 22:33 | 35.85054 | -80.62428 | 34909 ft | 500 kts | 33° |
| 2026-04-25 22:34 | 35.90705 | -80.57063 | 34926 ft | 502 kts | 33° |
| 2026-04-25 22:34 | 35.96324 | -80.51630 | 34943 ft | 504 kts | 37° |
| 2026-04-25 22:35 | 36.00959 | -80.44859 | 34956 ft | 510 kts | 58° |
| 2026-04-25 22:35 | 36.04681 | -80.37164 | 34957 ft | 511 kts | 55° |
| 2026-04-25 22:36 | 36.08586 | -80.29562 | 34953 ft | 512 kts | 55° |
| 2026-04-25 22:36 | 36.12501 | -80.21937 | 34954 ft | 513 kts | 56° |
| 2026-04-25 22:37 | 36.16364 | -80.14240 | 34954 ft | 514 kts | 56° |
| 2026-04-25 22:37 | 36.20185 | -80.06495 | 34934 ft | 516 kts | 56° |
| 2026-04-25 22:38 | 36.23988 | -79.98737 | 34915 ft | 517 kts | 56° |
| 2026-04-25 22:38 | 36.27832 | -79.90887 | 34897 ft | 518 kts | 56° |
| 2026-04-25 22:39 | 36.31673 | -79.83064 | 34897 ft | 519 kts | 56° |
| 2026-04-25 22:39 | 36.35517 | -79.75230 | 34900 ft | 520 kts | 56° |
| 2026-04-25 22:40 | 36.39377 | -79.67336 | 34899 ft | 521 kts | 56° |
| 2026-04-25 22:40 | 36.43239 | -79.59418 | 34899 ft | 521 kts | 56° |
| 2026-04-25 22:41 | 36.47084 | -79.51522 | 34900 ft | 522 kts | 56° |
| 2026-04-25 22:41 | 36.50921 | -79.43617 | 34901 ft | 523 kts | 57° |
| 2026-04-25 22:42 | 36.54785 | -79.35637 | 34904 ft | 523 kts | 57° |
| 2026-04-25 22:42 | 36.58630 | -79.27686 | 34904 ft | 523 kts | 57° |
| 2026-04-25 22:43 | 36.62481 | -79.19687 | 34907 ft | 523 kts | 57° |
| 2026-04-25 22:43 | 36.66283 | -79.11782 | 34903 ft | 524 kts | 57° |
| 2026-04-25 22:44 | 36.70109 | -79.03806 | 34886 ft | 515 kts | 57° |
| 2026-04-25 22:44 | 36.73795 | -78.96088 | 34819 ft | 492 kts | 57° |
| 2026-04-25 22:45 | 36.75577 | -78.92351 | 34513 ft | 485 kts | 57° |
| 2026-04-25 22:45 | 36.77331 | -78.88674 | 33979 ft | 483 kts | 57° |
| 2026-04-25 22:45 | 36.79110 | -78.84952 | 33255 ft | 488 kts | 57° |
| 2026-04-25 22:45 | 36.80899 | -78.81217 | 32593 ft | 492 kts | 57° |
| 2026-04-25 22:46 | 36.82709 | -78.77431 | 32054 ft | 494 kts | 57° |
| 2026-04-25 22:46 | 36.84511 | -78.73650 | 31596 ft | 494 kts | 57° |
| 2026-04-25 22:46 | 36.86298 | -78.69890 | 31158 ft | 494 kts | 57° |
| 2026-04-25 22:46 | 36.88105 | -78.66074 | 30686 ft | 494 kts | 58° |
| 2026-04-25 22:47 | 36.89880 | -78.62324 | 30204 ft | 495 kts | 58° |
| 2026-04-25 22:47 | 36.91674 | -78.58530 | 29684 ft | 496 kts | 58° |
| 2026-04-25 22:47 | 36.93486 | -78.54697 | 29180 ft | 497 kts | 58° |
| 2026-04-25 22:47 | 36.95269 | -78.50923 | 28719 ft | 497 kts | 58° |
| 2026-04-25 22:48 | 36.97075 | -78.47092 | 28266 ft | 497 kts | 58° |
| 2026-04-25 22:48 | 36.98860 | -78.43304 | 27812 ft | 497 kts | 58° |
| 2026-04-25 22:48 | 37.00668 | -78.39460 | 27340 ft | 497 kts | 58° |
| 2026-04-25 22:48 | 37.02474 | -78.35617 | 26861 ft | 497 kts | 58° |
| 2026-04-25 22:49 | 37.04258 | -78.31814 | 26612 ft | 491 kts | 59° |
| 2026-04-25 22:49 | 37.06018 | -78.28048 | 26635 ft | 479 kts | 59° |
| 2026-04-25 22:49 | 37.07712 | -78.24416 | 26623 ft | 469 kts | 59° |
| 2026-04-25 22:49 | 37.09383 | -78.20824 | 26500 ft | 462 kts | 59° |
| 2026-04-25 22:50 | 37.11006 | -78.17340 | 26284 ft | 456 kts | 59° |
| 2026-04-25 22:50 | 37.12636 | -78.13849 | 25889 ft | 452 kts | 59° |
| 2026-04-25 22:50 | 37.14263 | -78.10364 | 25447 ft | 451 kts | 58° |
| 2026-04-25 22:50 | 37.15880 | -78.06902 | 25004 ft | 449 kts | 59° |
| 2026-04-25 22:51 | 37.17493 | -78.03451 | 24601 ft | 447 kts | 59° |
| 2026-04-25 22:51 | 37.19104 | -77.99998 | 24197 ft | 444 kts | 59° |
| 2026-04-25 22:51 | 37.20687 | -77.96592 | 23890 ft | 439 kts | 59° |
| 2026-04-25 22:51 | 37.22252 | -77.93201 | 23529 ft | 436 kts | 59° |
| 2026-04-25 22:52 | 37.23806 | -77.89829 | 23166 ft | 433 kts | 58° |
| 2026-04-25 22:52 | 37.25348 | -77.86483 | 22795 ft | 431 kts | 58° |
| 2026-04-25 22:52 | 37.26889 | -77.83141 | 22444 ft | 428 kts | 58° |
| 2026-04-25 22:52 | 37.28398 | -77.79873 | 22091 ft | 425 kts | 58° |
| 2026-04-25 22:53 | 37.29914 | -77.76590 | 21692 ft | 421 kts | 58° |
| 2026-04-25 22:53 | 37.31412 | -77.73342 | 21271 ft | 418 kts | 58° |
| 2026-04-25 22:53 | 37.32916 | -77.70085 | 20812 ft | 415 kts | 58° |
| 2026-04-25 22:53 | 37.34385 | -77.66898 | 20373 ft | 412 kts | 58° |
| 2026-04-25 22:54 | 37.35855 | -77.63708 | 19931 ft | 409 kts | 58° |
| 2026-04-25 22:54 | 37.37321 | -77.60522 | 19521 ft | 405 kts | 58° |
| 2026-04-25 22:54 | 37.38752 | -77.57411 | 19091 ft | 402 kts | 58° |
| 2026-04-25 22:54 | 37.40179 | -77.54300 | 18667 ft | 399 kts | 58° |
| 2026-04-25 22:55 | 37.41586 | -77.51233 | 18255 ft | 396 kts | 57° |
| 2026-04-25 22:55 | 37.42987 | -77.48176 | 17842 ft | 393 kts | 57° |
| 2026-04-25 22:55 | 37.44389 | -77.45113 | 17397 ft | 391 kts | 57° |
| 2026-04-25 22:55 | 37.45787 | -77.42074 | 16952 ft | 388 kts | 57° |
| 2026-04-25 22:56 | 37.47165 | -77.39088 | 16515 ft | 386 kts | 58° |
| 2026-04-25 22:56 | 37.48606 | -77.36095 | 16042 ft | 383 kts | 52° |
| 2026-04-25 22:56 | 37.50470 | -77.33639 | 15599 ft | 378 kts | 34° |
| 2026-04-25 22:56 | 37.52805 | -77.31997 | 15204 ft | 372 kts | 19° |
| 2026-04-25 22:57 | 37.55315 | -77.30969 | 14847 ft | 368 kts | 11° |
| 2026-04-25 22:57 | 37.57854 | -77.30260 | 14510 ft | 365 kts | 8° |
| 2026-04-25 22:57 | 37.60426 | -77.29695 | 14168 ft | 363 kts | 6° |
| 2026-04-25 22:57 | 37.62983 | -77.29213 | 13822 ft | 362 kts | 5° |
| 2026-04-25 22:58 | 37.65553 | -77.28770 | 13556 ft | 362 kts | 5° |
| 2026-04-25 22:58 | 37.68119 | -77.28342 | 13411 ft | 362 kts | 5° |
| 2026-04-25 22:58 | 37.70650 | -77.27911 | 13288 ft | 361 kts | 5° |
| 2026-04-25 22:58 | 37.73199 | -77.27458 | 13165 ft | 360 kts | 5° |
| 2026-04-25 22:59 | 37.75737 | -77.26986 | 13037 ft | 359 kts | 5° |
| 2026-04-25 22:59 | 37.78237 | -77.26487 | 12961 ft | 357 kts | 6° |
| 2026-04-25 22:59 | 37.80763 | -77.25968 | 12937 ft | 355 kts | 6° |
| 2026-04-25 22:59 | 37.83241 | -77.25446 | 12942 ft | 356 kts | 6° |
| 2026-04-25 23:00 | 37.85754 | -77.24912 | 12953 ft | 357 kts | 6° |
| 2026-04-25 23:00 | 37.88294 | -77.24369 | 12963 ft | 357 kts | 6° |
| 2026-04-25 23:00 | 37.90818 | -77.23831 | 12970 ft | 358 kts | 6° |
| 2026-04-25 23:00 | 37.93339 | -77.23296 | 12975 ft | 358 kts | 6° |
| 2026-04-25 23:01 | 37.95831 | -77.22772 | 12974 ft | 356 kts | 6° |
| 2026-04-25 23:01 | 37.98315 | -77.22250 | 12973 ft | 355 kts | 6° |
| 2026-04-25 23:01 | 38.00832 | -77.21725 | 12971 ft | 353 kts | 5° |
| 2026-04-25 23:01 | 38.03285 | -77.21201 | 12971 ft | 353 kts | 6° |
| 2026-04-25 23:02 | 38.05786 | -77.20673 | 12971 ft | 352 kts | 6° |
| 2026-04-25 23:02 | 38.08244 | -77.20160 | 12962 ft | 346 kts | 6° |
| 2026-04-25 23:02 | 38.10650 | -77.19658 | 12941 ft | 332 kts | 5° |
| 2026-04-25 23:02 | 38.12922 | -77.19182 | 12917 ft | 319 kts | 5° |
| 2026-04-25 23:03 | 38.15138 | -77.18718 | 12778 ft | 310 kts | 5° |
| 2026-04-25 23:03 | 38.17283 | -77.18272 | 12533 ft | 306 kts | 5° |
| 2026-04-25 23:03 | 38.19458 | -77.17827 | 12190 ft | 305 kts | 5° |
| 2026-04-25 23:03 | 38.21597 | -77.17394 | 11812 ft | 306 kts | 5° |
| 2026-04-25 23:04 | 38.23751 | -77.16960 | 11451 ft | 306 kts | 5° |
| 2026-04-25 23:04 | 38.25896 | -77.16531 | 11127 ft | 304 kts | 5° |
| 2026-04-25 23:04 | 38.28034 | -77.16101 | 10817 ft | 303 kts | 6° |
| 2026-04-25 23:04 | 38.30173 | -77.15665 | 10519 ft | 301 kts | 6° |
| 2026-04-25 23:05 | 38.32262 | -77.15233 | 10209 ft | 299 kts | 6° |
| 2026-04-25 23:05 | 38.34373 | -77.14793 | 9884 ft | 298 kts | 6° |
| 2026-04-25 23:05 | 38.36460 | -77.14349 | 9565 ft | 296 kts | 6° |
| 2026-04-25 23:05 | 38.38567 | -77.13902 | 9229 ft | 296 kts | 6° |
| 2026-04-25 23:06 | 38.40623 | -77.13538 | 8888 ft | 291 kts | 355° |
| 2026-04-25 23:06 | 38.42636 | -77.13971 | 8528 ft | 286 kts | 343° |
| 2026-04-25 23:06 | 38.44566 | -77.14645 | 8213 ft | 284 kts | 340° |
| 2026-04-25 23:06 | 38.46505 | -77.15398 | 7906 ft | 283 kts | 340° |
| 2026-04-25 23:07 | 38.48431 | -77.16177 | 7599 ft | 282 kts | 340° |
| 2026-04-25 23:07 | 38.50334 | -77.16959 | 7292 ft | 281 kts | 340° |
| 2026-04-25 23:07 | 38.52248 | -77.17757 | 6980 ft | 280 kts | 339° |
| 2026-04-25 23:07 | 38.54134 | -77.18556 | 6676 ft | 279 kts | 339° |
| 2026-04-25 23:08 | 38.55998 | -77.19357 | 6379 ft | 278 kts | 339° |
| 2026-04-25 23:08 | 38.57894 | -77.20181 | 6112 ft | 275 kts | 340° |
| 2026-04-25 23:08 | 38.59723 | -77.20986 | 6020 ft | 266 kts | 339° |
| 2026-04-25 23:08 | 38.61461 | -77.21754 | 5983 ft | 254 kts | 339° |
| 2026-04-25 23:09 | 38.63143 | -77.22495 | 5975 ft | 247 kts | 339° |
| 2026-04-25 23:09 | 38.64805 | -77.23228 | 5984 ft | 242 kts | 339° |
| 2026-04-25 23:09 | 38.66427 | -77.23940 | 5990 ft | 239 kts | 339° |
| 2026-04-25 23:09 | 38.68039 | -77.24649 | 5992 ft | 240 kts | 339° |
| 2026-04-25 23:10 | 38.69646 | -77.25357 | 5995 ft | 245 kts | 339° |
| 2026-04-25 23:10 | 38.71339 | -77.26080 | 5994 ft | 251 kts | 345° |
| 2026-04-25 23:10 | 38.73089 | -77.26376 | 5964 ft | 245 kts | 356° |
| 2026-04-25 23:10 | 38.74821 | -77.26435 | 5717 ft | 239 kts | 359° |
| 2026-04-25 23:11 | 38.76508 | -77.26444 | 5401 ft | 236 kts | 359° |
| 2026-04-25 23:11 | 38.78189 | -77.26447 | 5040 ft | 235 kts | 360° |
| 2026-04-25 23:11 | 38.79860 | -77.26460 | 4665 ft | 234 kts | 360° |
| 2026-04-25 23:11 | 38.81530 | -77.26485 | 4298 ft | 234 kts | 360° |
| 2026-04-25 23:12 | 38.83189 | -77.26524 | 3951 ft | 232 kts | 360° |
| 2026-04-25 23:12 | 38.84836 | -77.26575 | 3611 ft | 231 kts | 360° |
| 2026-04-25 23:12 | 38.86480 | -77.26642 | 3276 ft | 229 kts | 360° |
| 2026-04-25 23:12 | 38.88089 | -77.26722 | 3064 ft | 220 kts | 360° |
| 2026-04-25 23:13 | 38.89641 | -77.26812 | 3007 ft | 218 kts | 359° |
| 2026-04-25 23:13 | 38.91213 | -77.26895 | 2994 ft | 225 kts | 4° |
| 2026-04-25 23:13 | 38.92727 | -77.26275 | 3002 ft | 225 kts | 32° |
| 2026-04-25 23:13 | 38.94085 | -77.25159 | 3010 ft | 229 kts | 38° |
| 2026-04-25 23:14 | 38.95416 | -77.23925 | 3011 ft | 227 kts | 39° |
| 2026-04-25 23:14 | 38.96656 | -77.22749 | 3030 ft | 202 kts | 39° |
| 2026-04-25 23:14 | 38.97716 | -77.21684 | 2988 ft | 176 kts | 54° |
| 2026-04-25 23:14 | 38.98033 | -77.20265 | 2978 ft | 162 kts | 98° |
| 2026-04-25 23:15 | 38.97802 | -77.18758 | 3020 ft | 174 kts | 106° |
| 2026-04-25 23:15 | 38.97416 | -77.17207 | 3036 ft | 181 kts | 120° |
| 2026-04-25 23:15 | 38.96692 | -77.15845 | 3037 ft | 182 kts | 129° |
| 2026-04-25 23:15 | 38.95798 | -77.14556 | 2828 ft | 193 kts | 134° |
| 2026-04-25 23:16 | 38.94883 | -77.13349 | 2711 ft | 175 kts | 134° |
| 2026-04-25 23:16 | 38.94057 | -77.12280 | 2657 ft | 153 kts | 135° |
| 2026-04-25 23:16 | 38.93309 | -77.11325 | 2395 ft | 143 kts | 135° |
| 2026-04-25 23:16 | 38.92607 | -77.10439 | 1931 ft | 141 kts | 135° |
| 2026-04-25 23:17 | 38.91916 | -77.09555 | 1658 ft | 131 kts | 133° |
| 2026-04-25 23:17 | 38.91278 | -77.08692 | 1323 ft | 131 kts | 131° |
| 2026-04-25 23:17 | 38.90613 | -77.07775 | 1166 ft | 135 kts | 131° |
| 2026-04-25 23:17 | 38.89946 | -77.06903 | 999 ft | 136 kts | 134° |
| 2026-04-25 23:18 | 38.89223 | -77.06046 | 852 ft | 136 kts | 138° |
| 2026-04-25 23:18 | 38.88510 | -77.05294 | 650 ft | 130 kts | 139° |
| 2026-04-25 23:18 | 38.87782 | -77.04522 | 474 ft | 130 kts | 137° |
| 2026-04-25 23:18 | 38.86967 | -77.04002 | 183 ft | 132 kts | 160° |
| 2026-04-25 23:19 | 38.86051 | -77.03866 | 20 ft | 124 kts | 174° |
| 2026-04-25 23:19 | 38.85291 | -77.03783 | 22 ft | 86 kts | 176° |
| 2026-04-25 23:19 | 38.84813 | -77.03741 | 21 ft | 51 kts | 175° |
| 2026-04-25 23:19 | 38.84510 | -77.03710 | 19 ft | 34 kts | 174° |
| 2026-04-25 23:20 | 38.84386 | -77.03800 | 18 ft | 16 kts | 269° |
| 2026-04-25 23:20 | 38.84458 | -77.03847 | 18 ft | 13 kts | 358° |
| 2026-04-25 23:20 | 38.84551 | -77.03854 | 19 ft | 13 kts | 356° |
| 2026-04-25 23:20 | 38.84648 | -77.03866 | 21 ft | 14 kts | 355° |
| 2026-04-25 23:21 | 38.84741 | -77.03916 | 23 ft | 14 kts | 316° |
| 2026-04-25 23:21 | 38.84840 | -77.03945 | 24 ft | 16 kts | 357° |
| 2026-04-25 23:21 | 38.84974 | -77.03959 | 24 ft | 19 kts | 354° |
| 2026-04-25 23:21 | 38.85115 | -77.03974 | 24 ft | 20 kts | 356° |
| 2026-04-25 23:22 | 38.85260 | -77.03987 | 25 ft | 20 kts | 356° |
| 2026-04-25 23:22 | 38.85409 | -77.04001 | 25 ft | 21 kts | 354° |
| 2026-04-25 23:22 | 38.85519 | -77.04031 | 25 ft | 9 kts | 302° |
| 2026-04-25 23:23 | 38.85486 | -77.04139 | 28 ft | 3 kts | 183° |
| 2026-04-25 23:23 | 38.85481 | -77.04139 | 28 ft | 0 kts | 181° |